createdAt,value
2018-09-09T00:02:23.658Z,99527.83
2018-09-09T00:04:53.518Z,99529.51
2018-09-09T00:07:22.069Z,99434.38
2018-09-09T00:09:51.324Z,99526.70
2018-09-09T00:12:20.619Z,99526.66
2018-09-09T00:14:49.590Z,99530.85
2018-09-09T00:17:18.188Z,99529.54
2018-09-09T00:19:46.840Z,99524.41
2018-09-09T00:22:15.439Z,99522.95
2018-09-09T00:24:44.014Z,99522.66
2018-09-09T00:27:12.584Z,99529.67
2018-09-09T00:29:41.257Z,99530.80
2018-09-09T00:32:09.824Z,99529.46
2018-09-09T00:34:38.396Z,99529.89
2018-09-09T00:37:06.905Z,99537.20
2018-09-09T00:39:35.564Z,99533.27
2018-09-09T00:42:04.103Z,99531.85
2018-09-09T00:44:32.749Z,99537.61
2018-09-09T00:47:01.323Z,99539.41
2018-09-09T00:49:35.035Z,99534.73
2018-09-09T00:52:09.357Z,99538.64
2018-09-09T00:54:37.887Z,99545.17
2018-09-09T00:57:06.726Z,99545.86
2018-09-09T00:59:35.808Z,99540.40
2018-09-09T01:02:04.483Z,99547.14
2018-09-09T01:04:33.043Z,99542.28
2018-09-09T01:07:01.640Z,99544.74
2018-09-09T01:09:32.105Z,99542.29
2018-09-09T01:12:01.383Z,99540.48
2018-09-09T01:14:29.996Z,99313.80
2018-09-09T01:16:59.969Z,99547.31
2018-09-09T01:19:28.563Z,99543.17
2018-09-09T01:21:57.655Z,99543.66
2018-09-09T01:24:26.188Z,99540.42
2018-09-09T01:26:55.366Z,99507.20
2018-09-09T01:29:24.407Z,99546.94
2018-09-09T01:31:53.772Z,99534.48
2018-09-09T01:34:23.136Z,99538.19
2018-09-09T01:36:51.793Z,99545.99
2018-09-09T01:39:20.385Z,99541.62
2018-09-09T01:41:48.915Z,99537.95
2018-09-09T01:44:17.812Z,99545.38
2018-09-09T01:46:46.780Z,99550.80
2018-09-09T01:49:15.333Z,99551.11
2018-09-09T01:51:44.580Z,99550.86
2018-09-09T01:54:13.126Z,99563.44
2018-09-09T01:56:42.319Z,99553.73
2018-09-09T01:59:11.543Z,99559.88
2018-09-09T02:01:40.203Z,99555.35
2018-09-09T02:04:08.706Z,99555.12
2018-09-09T02:06:37.361Z,99552.44
2018-09-09T02:09:06.581Z,99551.77
2018-09-09T02:11:35.646Z,99554.70
2018-09-09T02:14:04.168Z,99555.41
2018-09-09T02:16:32.782Z,99552.95
2018-09-09T02:19:02.096Z,99553.20
2018-09-09T02:21:30.698Z,99549.91
2018-09-09T02:23:59.279Z,99552.85
2018-09-09T02:26:27.846Z,99554.27
2018-09-09T02:28:56.486Z,99545.76
2018-09-09T02:31:25.018Z,99544.65
2018-09-09T02:33:53.657Z,99544.20
2018-09-09T02:36:22.919Z,99544.64
2018-09-09T02:38:52.806Z,99548.02
2018-09-09T02:41:22.374Z,99552.41
2018-09-09T02:43:50.984Z,99548.14
2018-09-09T02:46:19.595Z,99554.72
2018-09-09T02:48:48.182Z,99554.88
2018-09-09T02:51:16.737Z,99555.73
2018-09-09T02:53:45.230Z,99560.33
2018-09-09T02:56:13.786Z,99560.55
2018-09-09T02:58:43.304Z,99556.31
2018-09-09T03:01:11.886Z,99548.56
2018-09-09T03:03:40.528Z,99553.66
2018-09-09T03:06:09.061Z,99554.03
2018-09-09T03:08:38.327Z,99557.64
2018-09-09T03:11:12.222Z,99563.31
2018-09-09T03:13:40.762Z,99566.09
2018-09-09T03:16:09.476Z,99561.88
2018-09-09T03:18:38.801Z,99568.30
2018-09-09T03:21:07.926Z,99561.66
2018-09-09T03:23:36.568Z,99564.37
2018-09-09T03:26:05.716Z,99556.81
2018-09-09T03:28:34.367Z,99559.66
2018-09-09T03:31:03.420Z,99563.71
2018-09-09T03:33:31.950Z,99559.27
2018-09-09T03:36:00.451Z,99551.97
2018-09-09T03:38:28.896Z,99559.25
2018-09-09T03:40:57.402Z,99558.27
2018-09-09T03:43:25.964Z,99556.82
2018-09-09T03:45:54.475Z,99559.55
2018-09-09T03:48:23.590Z,99552.56
2018-09-09T03:50:52.224Z,99505.59
2018-09-09T03:53:20.782Z,99544.94
2018-09-09T03:55:49.942Z,99545.67
2018-09-09T03:58:19.253Z,99547.64
2018-09-09T04:00:47.805Z,99561.02
2018-09-09T04:03:16.341Z,99562.94
2018-09-09T04:05:45.436Z,99565.00
2018-09-09T04:08:14.886Z,99565.92
2018-09-09T04:10:44.023Z,99573.88
2018-09-09T04:13:12.554Z,99574.69
2018-09-09T04:15:41.087Z,99581.82
2018-09-09T04:18:10.132Z,99592.14
2018-09-09T04:20:38.674Z,99593.55
2018-09-09T04:23:07.252Z,99587.48
2018-09-09T04:25:35.771Z,99593.29
2018-09-09T04:28:04.239Z,99577.92
2018-09-09T04:30:32.827Z,99579.25
2018-09-09T04:33:01.385Z,99579.38
2018-09-09T04:35:29.840Z,99583.38
2018-09-09T04:37:58.305Z,99596.55
2018-09-09T04:40:27.444Z,99583.17
2018-09-09T04:42:56.227Z,99583.62
2018-09-09T04:45:24.702Z,99588.30
2018-09-09T04:47:53.212Z,99586.52
2018-09-09T04:50:21.866Z,99593.73
2018-09-09T04:52:50.343Z,99605.11
2018-09-09T04:55:18.814Z,99603.83
2018-09-09T04:57:47.290Z,99606.82
2018-09-09T05:00:15.870Z,99606.33
2018-09-09T05:02:45.182Z,99607.75
2018-09-09T05:05:13.702Z,99602.91
2018-09-09T05:07:42.244Z,99603.88
2018-09-09T05:10:10.775Z,99606.42
2018-09-09T05:12:39.428Z,99605.33
2018-09-09T05:18:39.408Z,99606.63
2018-09-09T05:21:07.965Z,99611.61
2018-09-09T05:23:36.614Z,99618.25
2018-09-09T05:26:05.139Z,99611.94
2018-09-09T05:28:33.623Z,99611.81
2018-09-09T05:31:02.212Z,99616.33
2018-09-09T05:33:30.738Z,99618.98
2018-09-09T05:35:59.298Z,99609.43
2018-09-09T05:38:28.611Z,99602.29
2018-09-09T05:40:57.192Z,99608.47
2018-09-09T05:43:26.361Z,99617.64
2018-09-09T05:45:55.047Z,99622.29
2018-09-09T05:48:23.623Z,99582.54
2018-09-09T05:50:52.174Z,99468.66
2018-09-09T05:53:21.373Z,99614.75
2018-09-09T05:55:49.932Z,99618.17
2018-09-09T05:58:18.538Z,99619.03
2018-09-09T06:00:47.063Z,99616.58
2018-09-09T06:03:16.718Z,99627.16
2018-09-09T06:05:45.292Z,99626.06
2018-09-09T06:08:13.912Z,99624.36
2018-09-09T06:10:42.476Z,99602.69
2018-09-09T06:13:10.987Z,99616.91
2018-09-09T06:15:40.742Z,99626.67
2018-09-09T06:18:09.227Z,99625.73
2018-09-09T06:20:37.850Z,99620.83
2018-09-09T06:23:07.646Z,99624.88
2018-09-09T06:25:36.113Z,99629.91
2018-09-09T06:28:04.587Z,99624.39
2018-09-09T06:30:35.253Z,99624.39
2018-09-09T06:33:04.231Z,99618.18
2018-09-09T06:35:32.765Z,99627.53
2018-09-09T06:38:01.277Z,99617.17
2018-09-09T06:40:29.927Z,99617.07
2018-09-09T06:42:58.464Z,99620.89
2018-09-09T06:45:29.415Z,99618.16
2018-09-09T06:47:57.915Z,99605.50
2018-09-09T06:50:26.459Z,99617.07
2018-09-09T06:52:55.992Z,99621.58
2018-09-09T06:55:24.556Z,99611.17
2018-09-09T06:57:53.131Z,99606.39
2018-09-09T07:00:22.801Z,99609.43
2018-09-09T07:02:51.395Z,99614.09
2018-09-09T07:05:19.886Z,99607.27
2018-09-09T07:07:48.392Z,99610.02
2018-09-09T07:10:17.031Z,99618.27
2018-09-09T07:12:46.310Z,99622.13
2018-09-09T07:15:14.895Z,99611.98
2018-09-09T07:17:43.436Z,99609.39
2018-09-09T07:20:11.912Z,99615.64
2018-09-09T07:22:40.414Z,99611.16
2018-09-09T07:25:08.794Z,99610.08
2018-09-09T07:27:37.255Z,99613.79
2018-09-09T07:30:06.320Z,99610.59
2018-09-09T07:32:35.615Z,99618.20
2018-09-09T07:35:04.248Z,99629.36
2018-09-09T07:37:32.762Z,99633.89
2018-09-09T07:40:01.215Z,99637.11
2018-09-09T07:42:29.756Z,99635.48
2018-09-09T07:45:05.201Z,99627.92
2018-09-09T07:47:34.470Z,99627.34
2018-09-09T07:50:02.956Z,99623.43
2018-09-09T07:52:31.465Z,99630.14
2018-09-09T07:55:00.130Z,99637.58
2018-09-09T07:57:28.626Z,99635.17
2018-09-09T07:59:57.877Z,99639.56
2018-09-09T08:02:26.386Z,99642.14
2018-09-09T08:04:54.922Z,99635.23
2018-09-09T08:07:23.577Z,99642.86
2018-09-09T08:09:52.065Z,99643.20
2018-09-09T08:12:20.742Z,99642.16
2018-09-09T08:14:49.187Z,99636.84
2018-09-09T08:17:17.704Z,99647.44
2018-09-09T08:19:46.241Z,99646.62
2018-09-09T08:22:14.846Z,99651.59
2018-09-09T08:24:44.039Z,99659.34
2018-09-09T08:27:12.679Z,99658.09
2018-09-09T08:29:41.324Z,99657.87
2018-09-09T08:32:09.895Z,99652.02
2018-09-09T08:34:38.483Z,99654.75
2018-09-09T08:37:07.001Z,99657.80
2018-09-09T08:39:35.467Z,99655.00
2018-09-09T08:42:03.950Z,99651.77
2018-09-09T08:44:33.171Z,99654.08
2018-09-09T08:47:01.696Z,99651.86
2018-09-09T08:49:30.786Z,99660.03
2018-09-09T08:51:59.296Z,99656.42
2018-09-09T08:54:27.733Z,99655.02
2018-09-09T08:56:56.194Z,99646.50
2018-09-09T08:59:24.733Z,99647.45
2018-09-09T09:01:53.542Z,99653.60
2018-09-09T09:04:22.797Z,99650.13
2018-09-09T09:06:51.295Z,99649.07
2018-09-09T09:09:19.862Z,99642.17
2018-09-09T09:11:48.392Z,99643.48
2018-09-09T09:14:16.881Z,99645.88
2018-09-09T09:16:45.415Z,99639.60
2018-09-09T09:19:13.939Z,99642.70
2018-09-09T09:21:42.480Z,99637.98
2018-09-09T09:24:11.598Z,99637.13
2018-09-09T09:26:40.079Z,99635.77
2018-09-09T09:29:08.583Z,99626.03
2018-09-09T09:31:37.100Z,99634.06
2018-09-09T09:34:05.644Z,99633.55
2018-09-09T09:36:34.200Z,99630.98
2018-09-09T09:39:02.719Z,99634.24
2018-09-09T09:41:31.222Z,99628.37
2018-09-09T09:43:59.804Z,99634.89
2018-09-09T09:46:28.340Z,99627.61
2018-09-09T09:48:56.804Z,99620.20
2018-09-09T09:51:25.282Z,99615.39
2018-09-09T09:53:54.375Z,99618.79
2018-09-09T09:56:22.843Z,99616.53
2018-09-09T09:58:51.311Z,99614.38
2018-09-09T10:01:19.797Z,99611.71
2018-09-09T10:03:49.136Z,99614.33
2018-09-09T10:06:17.640Z,99613.18
2018-09-09T10:08:46.128Z,99616.14
2018-09-09T10:11:15.266Z,99606.27
2018-09-09T10:13:43.710Z,99609.44
2018-09-09T10:16:12.812Z,99613.13
2018-09-09T10:18:41.332Z,99606.76
2018-09-09T10:21:09.928Z,99610.59
2018-09-09T10:23:38.616Z,99607.31
2018-09-09T10:26:07.277Z,99609.10
2018-09-09T10:28:36.251Z,99602.68
2018-09-09T10:31:04.941Z,99602.30
2018-09-09T10:33:33.449Z,99601.41
2018-09-09T10:36:02.029Z,99594.24
2018-09-09T10:38:31.580Z,99600.42
2018-09-09T10:41:00.055Z,99600.20
2018-09-09T10:43:30.269Z,99590.58
2018-09-09T10:45:58.821Z,99595.13
2018-09-09T10:48:28.599Z,99588.52
2018-09-09T10:50:57.182Z,99585.70
2018-09-09T10:53:25.662Z,99582.95
2018-09-09T10:55:55.000Z,99575.98
2018-09-09T10:58:23.475Z,99580.41
2018-09-09T11:00:52.155Z,99580.72
2018-09-09T11:03:20.652Z,99585.52
2018-09-09T11:05:49.159Z,99587.38
2018-09-09T11:08:18.129Z,99582.66
2018-09-09T11:10:47.053Z,99578.57
2018-09-09T11:13:16.458Z,99582.06
2018-09-09T11:15:45.024Z,99578.07
2018-09-09T11:18:14.990Z,99571.92
2018-09-09T11:20:43.619Z,99574.74
2018-09-09T11:23:12.139Z,99570.80
2018-09-09T11:25:41.251Z,99566.80
2018-09-09T11:28:09.752Z,99572.13
2018-09-09T11:30:38.280Z,99573.25
2018-09-09T11:33:06.998Z,99570.52
2018-09-09T11:35:35.978Z,99570.53
2018-09-09T11:38:04.427Z,99579.20
2018-09-09T11:40:33.049Z,99574.05
2018-09-09T11:43:01.551Z,99578.23
2018-09-09T11:45:30.052Z,99578.38
2018-09-09T11:47:58.539Z,99575.58
2018-09-09T11:50:27.046Z,99567.19
2018-09-09T11:52:56.224Z,99572.95
2018-09-09T11:55:24.717Z,99565.09
2018-09-09T11:57:53.176Z,99034.50
2018-09-09T12:00:21.704Z,99562.05
2018-09-09T12:02:50.199Z,99566.11
2018-09-09T12:05:18.713Z,99566.25
2018-09-09T12:07:47.236Z,99560.03
2018-09-09T12:10:15.748Z,99562.73
2018-09-09T12:12:44.273Z,99558.46
2018-09-09T12:15:12.750Z,99562.08
2018-09-09T12:17:41.225Z,99556.50
2018-09-09T12:20:09.764Z,99554.69
2018-09-09T12:22:38.302Z,99557.21
2018-09-09T12:25:06.742Z,99549.88
2018-09-09T12:27:35.498Z,99545.89
2018-09-09T12:30:03.963Z,99548.02
2018-09-09T12:32:33.497Z,99550.37
2018-09-09T12:35:02.002Z,99550.25
2018-09-09T12:37:30.483Z,99551.21
2018-09-09T12:39:58.966Z,99544.51
2018-09-09T12:42:28.386Z,99551.52
2018-09-09T12:45:02.089Z,99549.05
2018-09-09T12:47:35.863Z,99554.28
2018-09-09T12:50:04.359Z,99549.37
2018-09-09T12:52:33.977Z,99549.66
2018-09-09T12:55:02.465Z,99544.75
2018-09-09T12:57:30.923Z,99540.64
2018-09-09T12:59:59.485Z,99539.73
2018-09-09T13:02:28.726Z,99535.87
2018-09-09T13:04:57.255Z,99529.19
2018-09-09T13:07:25.779Z,99530.81
2018-09-09T13:09:54.307Z,99527.23
2018-09-09T13:12:22.773Z,99534.40
2018-09-09T13:14:52.114Z,99529.34
2018-09-09T13:17:20.606Z,99524.28
2018-09-09T13:19:49.035Z,99527.02
2018-09-09T13:22:17.652Z,99521.53
2018-09-09T13:24:46.145Z,99523.05
2018-09-09T13:27:14.654Z,99519.67
2018-09-09T13:29:43.191Z,99522.61
2018-09-09T13:32:13.009Z,99522.34
2018-09-09T13:34:41.651Z,99523.38
2018-09-09T13:37:10.238Z,99522.09
2018-09-09T13:39:38.787Z,99522.83
2018-09-09T13:42:08.553Z,99525.58
2018-09-09T13:44:38.724Z,99519.29
2018-09-09T13:47:07.221Z,99523.66
2018-09-09T13:49:37.166Z,99522.86
2018-09-09T13:52:05.642Z,99524.52
2018-09-09T13:54:36.719Z,99517.67
2018-09-09T13:57:06.559Z,99516.22
2018-09-09T13:59:35.063Z,99513.20
2018-09-09T14:02:04.727Z,99509.47
2018-09-09T14:04:33.749Z,99218.06
2018-09-09T14:07:03.090Z,99508.95
2018-09-09T14:09:31.708Z,99509.15
2018-09-09T14:12:00.206Z,99517.69
2018-09-09T14:14:29.275Z,99508.37
2018-09-09T14:16:57.786Z,99507.05
2018-09-09T14:19:26.319Z,99504.08
2018-09-09T14:21:54.899Z,99508.09
2018-09-09T14:24:23.337Z,99507.55
2018-09-09T14:26:51.867Z,99491.80
2018-09-09T14:29:20.422Z,99485.64
2018-09-09T14:31:48.914Z,99489.86
2018-09-09T14:34:17.374Z,99488.83
2018-09-09T14:36:45.871Z,99492.67
2018-09-09T14:39:14.610Z,99485.16
2018-09-09T14:41:43.367Z,99488.59
2018-09-09T14:44:11.874Z,99482.34
2018-09-09T14:46:40.377Z,99484.17
2018-09-09T14:49:08.874Z,99487.02
2018-09-09T14:51:37.353Z,99481.57
2018-09-09T14:54:05.907Z,99486.02
2018-09-09T14:56:34.644Z,99482.00
2018-09-09T14:59:03.734Z,99475.89
2018-09-09T15:01:32.291Z,99483.09
2018-09-09T15:04:00.813Z,99480.73
2018-09-09T15:06:29.266Z,99477.33
2018-09-09T15:08:57.786Z,99472.84
2018-09-09T15:11:26.268Z,99477.55
2018-09-09T15:13:54.799Z,99470.89
2018-09-09T15:16:23.352Z,99474.19
2018-09-09T15:18:52.009Z,99475.55
2018-09-09T15:21:20.502Z,99467.66
2018-09-09T15:23:48.986Z,99466.16
2018-09-09T15:26:17.863Z,99472.39
2018-09-09T15:28:46.411Z,99475.03
2018-09-09T15:31:15.618Z,99466.79
2018-09-09T15:33:44.131Z,99468.34
2018-09-09T15:36:12.619Z,99465.93
2018-09-09T15:38:41.119Z,99467.80
2018-09-09T15:41:10.175Z,99467.37
2018-09-09T15:43:38.847Z,99468.27
2018-09-09T15:46:07.638Z,99471.44
2018-09-09T15:48:36.268Z,99467.97
2018-09-09T15:51:04.779Z,99460.63
2018-09-09T15:53:34.318Z,99458.13
2018-09-09T15:56:02.871Z,99460.63
2018-09-09T15:58:32.078Z,99453.50
2018-09-09T16:01:02.098Z,99461.70
2018-09-09T16:03:31.208Z,99464.80
2018-09-09T16:05:59.892Z,99459.28
2018-09-09T16:08:28.531Z,99457.16
2018-09-09T16:10:57.203Z,99458.98
2018-09-09T16:13:26.433Z,99463.88
2018-09-09T16:15:55.114Z,99463.11
2018-09-09T16:18:23.817Z,99463.66
2018-09-09T16:20:52.432Z,99463.87
2018-09-09T16:23:21.122Z,99467.37
2018-09-09T16:25:50.096Z,99466.23
2018-09-09T16:28:19.358Z,99466.22
2018-09-09T16:30:47.877Z,99471.97
2018-09-09T16:33:16.416Z,99470.30
2018-09-09T16:35:44.951Z,99466.94
2018-09-09T16:38:13.528Z,99476.09
2018-09-09T16:40:42.654Z,99474.19
2018-09-09T16:43:11.246Z,99473.77
2018-09-09T16:45:39.793Z,99473.25
2018-09-09T16:48:08.303Z,99468.40
2018-09-09T16:50:36.864Z,99473.77
2018-09-09T16:53:05.609Z,99471.53
2018-09-09T16:55:34.070Z,99475.09
2018-09-09T16:58:02.827Z,99478.22
2018-09-09T17:00:32.054Z,99474.31
2018-09-09T17:03:01.862Z,99475.63
2018-09-09T17:05:30.469Z,99481.50
2018-09-09T17:07:59.580Z,99475.98
2018-09-09T17:10:28.171Z,99479.43
2018-09-09T17:12:56.718Z,99479.75
2018-09-09T17:15:25.212Z,99482.59
2018-09-09T17:17:53.706Z,99481.09
2018-09-09T17:20:23.478Z,99480.22
2018-09-09T17:22:52.558Z,99483.23
2018-09-09T17:25:21.072Z,99492.09
2018-09-09T17:27:49.683Z,99500.49
2018-09-09T17:30:19.003Z,99491.84
2018-09-09T17:32:48.127Z,99491.31
2018-09-09T17:35:16.609Z,99493.98
2018-09-09T17:37:45.065Z,99501.53
2018-09-09T17:40:13.598Z,99504.49
2018-09-09T17:42:43.623Z,99511.27
2018-09-09T17:45:12.248Z,99509.38
2018-09-09T17:47:40.659Z,99509.67
2018-09-09T17:50:10.351Z,99513.37
2018-09-09T17:52:41.013Z,99514.45
2018-09-09T17:55:09.864Z,99516.82
2018-09-09T17:57:38.328Z,99512.98
2018-09-09T18:00:10.088Z,99514.85
2018-09-09T18:02:39.862Z,99520.78
2018-09-09T18:05:08.770Z,99524.52
2018-09-09T18:07:37.909Z,99523.19
2018-09-09T18:10:06.828Z,99532.80
2018-09-09T18:12:35.302Z,99519.53
2018-09-09T18:15:03.795Z,99524.72
2018-09-09T18:17:32.828Z,99530.28
2018-09-09T18:20:01.320Z,99530.64
2018-09-09T18:22:30.560Z,99535.17
2018-09-09T18:24:59.139Z,99540.16
2018-09-09T18:27:27.900Z,99544.06
2018-09-09T18:29:56.596Z,99544.36
2018-09-09T18:32:24.945Z,99550.07
2018-09-09T18:34:53.536Z,99554.16
2018-09-09T18:37:22.166Z,99561.59
2018-09-09T18:39:50.654Z,99557.77
2018-09-09T18:42:19.939Z,99558.48
2018-09-09T18:44:48.565Z,99561.34
2018-09-09T18:47:17.072Z,99563.91
2018-09-09T18:49:45.787Z,99569.97
2018-09-09T18:52:14.575Z,99565.47
2018-09-09T18:54:43.211Z,99568.50
2018-09-09T18:57:11.723Z,99574.20
2018-09-09T18:59:40.259Z,99567.84
2018-09-09T19:02:08.787Z,99571.53
2018-09-09T19:04:38.843Z,99567.95
2018-09-09T19:07:07.401Z,99571.64
2018-09-09T19:09:35.894Z,99574.98
2018-09-09T19:12:04.347Z,99580.98
2018-09-09T19:14:32.775Z,99586.70
2018-09-09T19:17:01.848Z,99553.63
2018-09-09T19:19:30.654Z,99577.81
2018-09-09T19:22:00.027Z,99579.13
2018-09-09T19:24:29.318Z,99583.73
2018-09-09T19:26:57.824Z,99583.73
2018-09-09T19:29:26.289Z,99587.57
2018-09-09T19:31:54.816Z,99583.19
2018-09-09T19:34:23.230Z,99584.87
2018-09-09T19:36:51.847Z,99586.49
2018-09-09T19:39:20.310Z,99584.43
2018-09-09T19:41:48.887Z,99583.48
2018-09-09T19:44:17.482Z,99593.52
2018-09-09T19:46:45.888Z,99590.52
2018-09-09T19:49:14.329Z,99594.64
2018-09-09T19:51:42.906Z,99604.05
2018-09-09T19:54:12.466Z,99594.16
2018-09-09T19:56:40.960Z,99590.59
2018-09-09T19:59:09.500Z,99594.38
2018-09-09T20:01:38.711Z,99602.63
2018-09-09T20:04:07.203Z,99597.28
2018-09-09T20:06:35.768Z,99598.77
2018-09-09T20:09:04.657Z,99604.27
2018-09-09T20:11:33.161Z,99597.34
2018-09-09T20:14:01.641Z,99602.59
2018-09-09T20:16:30.677Z,99603.49
2018-09-09T20:18:59.130Z,99608.45
2018-09-09T20:21:27.734Z,99608.27
2018-09-09T20:23:56.187Z,99601.48
2018-09-09T20:26:24.639Z,99602.91
2018-09-09T20:28:53.091Z,99607.80
2018-09-09T20:31:21.586Z,99605.88
2018-09-09T20:33:50.114Z,99605.83
2018-09-09T20:36:18.633Z,99603.30
2018-09-09T20:38:47.163Z,99618.58
2018-09-09T20:41:15.654Z,99623.16
2018-09-09T20:43:44.236Z,99626.22
2018-09-09T20:46:12.785Z,99625.48
2018-09-09T20:48:41.303Z,99627.72
2018-09-09T20:51:10.449Z,99623.86
2018-09-09T20:53:38.940Z,99625.51
2018-09-09T20:56:07.477Z,99627.02
2018-09-09T20:58:36.074Z,99629.54
2018-09-09T21:01:04.575Z,99628.55
2018-09-09T21:03:33.338Z,99633.69
2018-09-09T21:06:03.202Z,99632.84
2018-09-09T21:08:32.155Z,99629.91
2018-09-09T21:11:00.731Z,99638.47
2018-09-09T21:13:30.542Z,99637.58
2018-09-09T21:15:58.960Z,99642.33
2018-09-09T21:18:27.524Z,99642.98
2018-09-09T21:20:55.945Z,99647.84
2018-09-09T21:23:24.342Z,99640.83
2018-09-09T21:25:53.372Z,99643.70
2018-09-09T21:28:23.043Z,99640.25
2018-09-09T21:30:51.872Z,99640.55
2018-09-09T21:33:20.606Z,99642.81
2018-09-09T21:35:49.137Z,99639.59
2018-09-09T21:38:17.627Z,99643.70
2018-09-09T21:40:46.155Z,99636.61
2018-09-09T21:43:14.676Z,99635.21
2018-09-09T21:45:43.186Z,99631.75
2018-09-09T21:48:11.717Z,99634.78
2018-09-09T21:50:40.193Z,99636.69
2018-09-09T21:53:08.986Z,99635.49
2018-09-09T21:55:37.974Z,99631.45
2018-09-09T21:58:06.649Z,99634.38
2018-09-09T22:00:39.280Z,99637.91
2018-09-09T22:03:07.770Z,99636.70
2018-09-09T22:05:37.213Z,99637.34
2018-09-09T22:08:06.167Z,99622.95
2018-09-09T22:10:35.665Z,99630.95
2018-09-09T22:13:04.697Z,99631.30
2018-09-09T22:15:33.260Z,99633.97
2018-09-09T22:18:01.739Z,99631.40
2018-09-09T22:20:30.285Z,99630.41
2018-09-09T22:22:58.721Z,99465.42
2018-09-09T22:25:27.311Z,99631.32
2018-09-09T22:27:55.807Z,99637.56
2018-09-09T22:30:24.303Z,99635.32
2018-09-09T22:32:52.798Z,99638.67
2018-09-09T22:35:21.231Z,99637.17
2018-09-09T22:37:49.756Z,99638.25
2018-09-09T22:40:18.869Z,99631.79
2018-09-09T22:42:48.761Z,99643.04
2018-09-09T22:45:18.203Z,99643.06
2018-09-09T22:47:46.874Z,99643.24
2018-09-09T22:50:15.395Z,99642.45
2018-09-09T22:52:44.162Z,99642.18
2018-09-09T22:55:12.727Z,99641.48
2018-09-09T22:57:41.249Z,99640.36
2018-09-09T23:00:09.807Z,99637.78
2018-09-09T23:02:38.383Z,99634.92
2018-09-09T23:05:07.123Z,99627.75
2018-09-09T23:07:35.762Z,99632.84
2018-09-09T23:10:04.315Z,99639.17
2018-09-09T23:12:32.920Z,99640.25
2018-09-09T23:15:02.626Z,99644.33
2018-09-09T23:17:31.362Z,99638.72
2018-09-09T23:19:59.838Z,99635.58
2018-09-09T23:22:28.399Z,99644.55
2018-09-09T23:24:57.156Z,99635.58
2018-09-09T23:27:25.722Z,99630.31
2018-09-09T23:29:54.230Z,99629.31
2018-09-09T23:32:22.777Z,99624.30
2018-09-09T23:34:51.280Z,99629.77
2018-09-09T23:37:19.788Z,99633.88
2018-09-09T23:39:49.100Z,99637.94
2018-09-09T23:42:18.292Z,99629.98
2018-09-09T23:44:46.789Z,99630.63
2018-09-09T23:48:44.490Z,99633.00
2018-09-09T23:51:12.964Z,99634.68
2018-09-09T23:53:41.476Z,99625.74
2018-09-09T23:56:09.975Z,99629.55
2018-09-09T23:58:39.581Z,99626.31
